createdAt,value
2019-04-22T00:00:10.662Z,101725.70
2019-04-22T00:01:21.512Z,101727.78
2019-04-22T00:02:22.412Z,101730.40
2019-04-22T00:03:36.028Z,101730.78
2019-04-22T00:04:45.264Z,101723.86
2019-04-22T00:05:58.823Z,101729.47
2019-04-22T00:07:03.257Z,101732.09
2019-04-22T00:08:11.673Z,101728.16
2019-04-22T00:09:19.589Z,101733.02
2019-04-22T00:10:26.506Z,101729.86
2019-04-22T00:11:29.175Z,101726.47
2019-04-22T00:12:34.615Z,101727.24
2019-04-22T00:13:43.877Z,101729.47
2019-04-22T00:14:35.103Z,101726.86
2019-04-22T00:15:43.829Z,101723.32
2019-04-22T00:16:51.824Z,101722.94
2019-04-22T00:18:03.743Z,101727.24
2019-04-22T00:19:15.451Z,101719.39
2019-04-22T00:20:08.553Z,101721.09
2019-04-22T00:21:16.059Z,101715.47
2019-04-22T00:23:18.665Z,101719.02
2019-04-22T00:24:23.977Z,101721.09
2019-04-22T00:25:34.421Z,101723.70
2019-04-22T00:26:37.885Z,101718.09
2019-04-22T00:27:50.900Z,101719.02
2019-04-22T00:28:52.178Z,101717.94
2019-04-22T00:31:00.733Z,101709.32
2019-04-22T00:32:16.133Z,101713.25
2019-04-22T00:33:22.917Z,101708.40
2019-04-22T00:34:22.869Z,101708.40
2019-04-22T00:35:31.302Z,101705.78
2019-04-22T00:36:36.659Z,101703.94
2019-04-22T00:37:43.753Z,101700.94
2019-04-22T00:38:51.591Z,101703.17
2019-04-22T00:39:53.937Z,101699.25
2019-04-22T00:41:01.947Z,101694.94
2019-04-22T00:42:01.970Z,101698.86
2019-04-22T00:43:07.032Z,101696.62
2019-04-22T00:44:22.258Z,101698.86
2019-04-22T00:45:19.359Z,101705.78
2019-04-22T00:46:25.175Z,101697.41
2019-04-22T00:48:32.257Z,101704.09
2019-04-22T00:50:49.559Z,101696.62
2019-04-22T00:51:52.624Z,101699.25
2019-04-22T00:52:57.616Z,101696.62
2019-04-22T00:53:57.521Z,101694.41
2019-04-22T00:55:06.951Z,101700.55
2019-04-22T00:57:15.433Z,101701.33
2019-04-22T00:58:24.403Z,101701.33
2019-04-22T00:59:23.572Z,101703.17
2019-04-22T01:00:31.402Z,101700.40
2019-04-22T01:01:37.289Z,101702.25
2019-04-22T01:02:42.947Z,101700.02
2019-04-22T01:03:50.498Z,101698.33
2019-04-22T01:04:56.063Z,101699.62
2019-04-22T01:05:55.398Z,101697.02
2019-04-22T01:07:02.012Z,101699.25
2019-04-22T01:08:07.048Z,101703.17
2019-04-22T01:09:13.643Z,101697.02
2019-04-22T01:10:20.622Z,101697.41
2019-04-22T01:11:29.488Z,101694.78
2019-04-22T01:12:26.545Z,101691.63
2019-04-22T01:13:34.642Z,101694.41
2019-04-22T01:14:35.286Z,101693.09
2019-04-22T01:15:40.236Z,101689.55
2019-04-22T01:16:50.882Z,101689.55
2019-04-22T01:17:56.218Z,101687.33
2019-04-22T01:18:55.440Z,101683.78
2019-04-22T01:20:05.092Z,101685.63
2019-04-22T01:22:13.689Z,101686.94
2019-04-22T01:23:12.058Z,101680.02
2019-04-22T01:24:19.381Z,101684.33
2019-04-22T01:25:24.963Z,101683.02
2019-04-22T01:26:27.135Z,101679.48
2019-04-22T01:27:32.425Z,101679.48
2019-04-22T01:28:30.132Z,101676.48
2019-04-22T01:29:39.745Z,101679.48
2019-04-22T01:30:38.363Z,101675.94
2019-04-22T01:31:38.069Z,101682.63
2019-04-22T01:32:43.978Z,101682.48
2019-04-22T01:33:58.648Z,101681.71
2019-04-22T01:35:05.046Z,101681.17
2019-04-22T01:36:13.699Z,101679.86
2019-04-22T01:37:20.290Z,101677.25
2019-04-22T01:38:22.518Z,101678.17
2019-04-22T01:39:39.038Z,101674.63
2019-04-22T01:40:39.353Z,101673.33
2019-04-22T01:42:57.564Z,101674.63
2019-04-22T01:44:57.027Z,101668.09
2019-04-22T01:46:08.004Z,101672.02
2019-04-22T01:47:10.142Z,101675.56
2019-04-22T01:48:17.640Z,101667.17
2019-04-22T01:49:23.697Z,101671.09
2019-04-22T01:50:26.310Z,101667.17
2019-04-22T01:51:50.340Z,101664.56
2019-04-22T01:52:41.649Z,101665.48
2019-04-22T01:53:43.048Z,101660.64
2019-04-22T01:55:03.880Z,101661.17
2019-04-22T01:55:52.052Z,101661.95
2019-04-22T01:57:02.141Z,101659.72
2019-04-22T01:57:59.871Z,101664.17
2019-04-22T01:58:58.950Z,101661.95
2019-04-22T02:00:00.432Z,101658.79
2019-04-22T02:01:22.338Z,101661.56
2019-04-22T02:02:28.523Z,101662.33
2019-04-22T02:03:31.149Z,101661.56
2019-04-22T02:04:39.749Z,101659.33
2019-04-22T02:05:37.608Z,101655.41
2019-04-22T02:06:45.996Z,101661.56
2019-04-22T02:07:51.572Z,101656.17
2019-04-22T02:09:56.157Z,101661.02
2019-04-22T02:11:04.207Z,101656.72
2019-04-22T02:12:14.432Z,101656.72
2019-04-22T02:13:15.431Z,101657.48
2019-04-22T02:14:20.371Z,101659.72
2019-04-22T02:15:23.458Z,101657.48
2019-04-22T02:16:32.328Z,101658.79
2019-04-22T02:18:42.696Z,101661.02
2019-04-22T02:19:51.264Z,101652.25
2019-04-22T02:21:01.688Z,101656.17
2019-04-22T02:21:51.186Z,101654.87
2019-04-22T02:23:15.954Z,101649.09
2019-04-22T02:24:05.193Z,101650.95
2019-04-22T02:25:08.483Z,101653.95
2019-04-22T02:26:16.764Z,101652.25
2019-04-22T02:27:30.670Z,101656.17
2019-04-22T02:28:35.641Z,101650.02
2019-04-22T02:29:31.325Z,101653.95
2019-04-22T02:30:49.896Z,101652.25
2019-04-22T02:31:44.172Z,101642.95
2019-04-22T02:35:11.593Z,101646.48
2019-04-22T02:37:04.971Z,101646.48
2019-04-22T02:38:19.443Z,101646.87
2019-04-22T02:39:16.150Z,101643.48
2019-04-22T02:40:19.355Z,101646.48
2019-04-22T02:42:49.258Z,101640.68
2019-04-22T02:43:55.361Z,101643.48
2019-04-22T02:44:47.097Z,101636.03
2019-04-22T02:47:06.985Z,101636.03
2019-04-22T02:47:58.528Z,101636.03
2019-04-22T02:50:05.178Z,101629.48
2019-04-22T02:51:17.102Z,101636.03
2019-04-22T02:52:26.264Z,101630.22
2019-04-22T02:53:45.052Z,101625.00
2019-04-22T02:55:32.362Z,101625.95
2019-04-22T02:59:57.124Z,101629.48
2019-04-22T03:01:54.206Z,101629.87
2019-04-22T03:03:20.675Z,101626.69
2019-04-22T03:04:10.917Z,101631.53
2019-04-22T03:05:19.583Z,101629.87
2019-04-22T03:07:23.514Z,101625.00
2019-04-22T03:08:51.207Z,101622.77
2019-04-22T03:09:41.027Z,101625.77
2019-04-22T03:11:59.216Z,101625.38
2019-04-22T03:12:55.202Z,101618.30
2019-04-22T03:15:05.962Z,101629.30
2019-04-22T03:17:17.502Z,101622.77
2019-04-22T03:19:34.029Z,101625.38
2019-04-22T03:20:31.397Z,101620.15
2019-04-22T03:21:34.332Z,101623.92
2019-04-22T03:22:38.916Z,101619.23
2019-04-22T03:23:55.849Z,101620.53
2019-04-22T03:25:23.812Z,101619.23
2019-04-22T03:27:02.797Z,101618.30
2019-04-22T03:27:58.291Z,101619.61
2019-04-22T03:29:28.145Z,101622.23
2019-04-22T03:30:41.583Z,101621.30
2019-04-22T03:31:34.447Z,101622.23
2019-04-22T03:33:44.431Z,101623.53
2019-04-22T03:35:41.739Z,101624.30
2019-04-22T03:40:04.346Z,101623.92
2019-04-22T03:41:13.346Z,101621.30
2019-04-22T03:43:14.283Z,101622.08
2019-04-22T03:46:32.597Z,101613.84
2019-04-22T03:47:45.339Z,101614.61
2019-04-22T03:48:47.324Z,101614.77
2019-04-22T03:49:55.995Z,101607.16
2019-04-22T03:50:42.422Z,101609.54
2019-04-22T03:52:05.000Z,101604.16
2019-04-22T03:53:15.415Z,101606.39
2019-04-22T03:55:09.102Z,101607.70
2019-04-22T03:56:47.506Z,101609.00
2019-04-22T03:58:21.466Z,101601.55
2019-04-22T04:00:45.502Z,101605.08
2019-04-22T04:04:07.063Z,101607.70
2019-04-22T04:04:51.852Z,101609.00
2019-04-22T04:06:00.190Z,101600.63
2019-04-22T04:10:37.104Z,101601.55
2019-04-22T04:11:38.999Z,101609.00
2019-04-22T04:12:43.479Z,101605.47
2019-04-22T04:13:40.872Z,101602.85
2019-04-22T04:15:05.204Z,101603.77
2019-04-22T04:15:44.544Z,101602.85
2019-04-22T04:17:02.388Z,101604.92
2019-04-22T04:19:13.065Z,101598.39
2019-04-22T04:20:26.272Z,101607.16
2019-04-22T04:21:27.346Z,101605.08
2019-04-22T04:22:33.962Z,101601.92
2019-04-22T04:23:28.850Z,101603.23
2019-04-22T04:25:46.746Z,101603.23
2019-04-22T04:28:10.686Z,101603.63
2019-04-22T04:31:00.880Z,101608.08
2019-04-22T04:32:18.828Z,101609.39
2019-04-22T04:33:24.967Z,101605.84
2019-04-22T04:35:32.289Z,101606.23
2019-04-22T04:36:28.681Z,101606.23
2019-04-22T04:39:51.120Z,101609.23
2019-04-22T04:41:01.942Z,101601.92
2019-04-22T04:42:05.349Z,101605.84
2019-04-22T04:42:54.111Z,101607.92
2019-04-22T04:44:15.124Z,101611.08
2019-04-22T04:45:31.670Z,101611.08
2019-04-22T04:46:16.613Z,101607.16
2019-04-22T04:47:35.645Z,101612.77
2019-04-22T04:48:21.061Z,101609.39
2019-04-22T04:49:36.673Z,101615.92
2019-04-22T04:50:25.212Z,101612.92
2019-04-22T04:53:53.494Z,101612.00
2019-04-22T04:55:59.751Z,101611.46
2019-04-22T04:56:55.972Z,101613.31
2019-04-22T04:58:13.871Z,101611.46
2019-04-22T04:59:28.143Z,101615.00
2019-04-22T05:02:44.875Z,101614.61
2019-04-22T05:03:46.665Z,101615.92
2019-04-22T05:04:51.010Z,101615.00
2019-04-22T05:05:39.791Z,101616.31
2019-04-22T05:06:57.218Z,101618.53
2019-04-22T05:10:27.067Z,101615.00
2019-04-22T05:11:05.587Z,101617.61
2019-04-22T05:13:10.357Z,101615.92
2019-04-22T05:14:17.186Z,101619.46
2019-04-22T05:15:27.014Z,101614.61
2019-04-22T05:16:34.604Z,101616.31
2019-04-22T05:18:44.661Z,101620.23
2019-04-22T05:19:36.119Z,101611.46
2019-04-22T05:20:59.978Z,101622.08
2019-04-22T05:23:01.250Z,101620.23
2019-04-22T05:24:10.775Z,101622.08
2019-04-22T05:25:15.055Z,101620.77
2019-04-22T05:26:26.026Z,101615.92
2019-04-22T05:27:29.125Z,101623.92
2019-04-22T05:28:24.192Z,101625.08
2019-04-22T05:32:43.009Z,101622.08
2019-04-22T05:33:51.470Z,101623.77
2019-04-22T05:34:54.051Z,101624.69
2019-04-22T05:36:03.061Z,101628.61
2019-04-22T05:37:22.172Z,101628.99
2019-04-22T05:38:11.328Z,101631.77
2019-04-22T05:39:12.556Z,101626.53
2019-04-22T05:41:26.563Z,101624.30
2019-04-22T05:42:44.195Z,101627.84
2019-04-22T05:43:34.357Z,101625.61
2019-04-22T05:44:48.072Z,101627.45
2019-04-22T05:45:40.543Z,101630.45
2019-04-22T05:46:47.870Z,101622.08
2019-04-22T05:47:52.375Z,101623.00
2019-04-22T05:49:03.236Z,101624.69
2019-04-22T05:50:06.449Z,101625.23
2019-04-22T05:51:25.665Z,101623.92
2019-04-22T05:52:14.915Z,101631.77
2019-04-22T05:53:13.574Z,101626.15
2019-04-22T05:54:27.855Z,101625.61
2019-04-22T05:57:40.627Z,101627.84
2019-04-22T05:58:56.585Z,101634.92
2019-04-22T05:59:56.982Z,101626.53
2019-04-22T06:01:21.842Z,101636.99
2019-04-22T06:02:05.250Z,101636.61
2019-04-22T06:03:07.245Z,101627.84
2019-04-22T06:04:16.782Z,101631.38
2019-04-22T06:05:17.271Z,101632.69
2019-04-22T06:06:18.184Z,101635.30
2019-04-22T06:07:26.574Z,101637.91
2019-04-22T06:08:31.002Z,101634.92
2019-04-22T06:09:32.350Z,101637.91
2019-04-22T06:10:45.684Z,101636.22
2019-04-22T06:11:41.120Z,101628.38
2019-04-22T06:12:48.094Z,101640.14
2019-04-22T06:13:52.020Z,101630.99
2019-04-22T06:15:01.399Z,101629.69
2019-04-22T06:16:01.926Z,101635.30
2019-04-22T06:17:20.249Z,101628.00
2019-04-22T06:18:22.809Z,101637.14
2019-04-22T06:19:18.554Z,101632.30
2019-04-22T06:20:35.144Z,101630.22
2019-04-22T06:21:38.911Z,101637.14
2019-04-22T06:22:44.998Z,101636.77
2019-04-22T06:23:46.374Z,101636.22
2019-04-22T06:24:57.946Z,101642.38
2019-04-22T06:27:10.266Z,101641.07
2019-04-22T06:28:13.572Z,101636.41
2019-04-22T06:29:15.314Z,101641.64
2019-04-22T06:30:19.115Z,101642.95
2019-04-22T06:31:28.162Z,101633.22
2019-04-22T06:33:53.252Z,101634.53
2019-04-22T06:34:38.567Z,101641.07
2019-04-22T06:35:56.387Z,101642.95
2019-04-22T06:38:12.597Z,101640.68
2019-04-22T06:38:55.206Z,101642.56
2019-04-22T06:39:59.336Z,101641.26
2019-04-22T06:41:10.493Z,101639.95
2019-04-22T06:42:13.784Z,101635.26
2019-04-22T06:43:26.255Z,101638.64
2019-04-22T06:44:26.575Z,101635.64
2019-04-22T06:45:23.488Z,101635.11
2019-04-22T06:46:38.527Z,101642.18
2019-04-22T06:48:56.297Z,101643.87
2019-04-22T06:49:48.878Z,101634.72
2019-04-22T06:52:01.203Z,101639.18
2019-04-22T06:53:02.959Z,101637.48
2019-04-22T06:54:07.833Z,101636.56
2019-04-22T06:55:16.490Z,101642.72
2019-04-22T06:56:16.870Z,101644.41
2019-04-22T06:57:19.696Z,101645.72
2019-04-22T06:58:44.038Z,101640.10
2019-04-22T06:59:31.245Z,101641.41
2019-04-22T07:00:40.378Z,101640.48
2019-04-22T07:03:12.355Z,101646.25
2019-04-22T07:03:54.146Z,101642.72
2019-04-22T07:04:56.312Z,101645.88
2019-04-22T07:06:20.155Z,101644.95
2019-04-22T07:07:06.450Z,101645.88
2019-04-22T07:08:34.371Z,101644.95
2019-04-22T07:09:38.298Z,101650.33
2019-04-22T07:10:30.197Z,101648.48
2019-04-22T07:11:26.678Z,101647.56
2019-04-22T07:12:31.932Z,101649.80
2019-04-22T07:13:34.673Z,101646.80
2019-04-22T07:14:47.032Z,101647.72
2019-04-22T07:15:50.523Z,101647.72
2019-04-22T07:16:54.508Z,101653.87
2019-04-22T07:19:05.977Z,101649.95
2019-04-22T07:20:04.313Z,101651.25
2019-04-22T07:21:26.086Z,101645.10
2019-04-22T07:22:19.850Z,101646.80
2019-04-22T07:26:37.310Z,101652.17
2019-04-22T07:27:46.008Z,101652.17
2019-04-22T07:28:50.452Z,101650.87
2019-04-22T07:31:05.639Z,101653.09
2019-04-22T07:32:07.841Z,101658.72
2019-04-22T07:34:24.916Z,101655.33
2019-04-22T07:37:36.842Z,101650.48
2019-04-22T07:38:32.794Z,101650.09
2019-04-22T07:39:46.034Z,101653.48
2019-04-22T07:40:50.405Z,101656.64
2019-04-22T07:41:59.174Z,101653.09
2019-04-22T07:43:04.414Z,101654.95
2019-04-22T07:45:10.290Z,101653.63
2019-04-22T07:46:13.739Z,101650.48
2019-04-22T07:47:29.578Z,101655.48
2019-04-22T07:48:35.770Z,101654.02
2019-04-22T07:50:49.348Z,101655.72
2019-04-22T07:52:46.939Z,101658.17
2019-04-22T07:53:50.856Z,101659.87
2019-04-22T07:54:58.375Z,101656.48
2019-04-22T07:56:01.372Z,101655.33
2019-04-22T07:57:15.349Z,101653.25
2019-04-22T07:58:16.963Z,101649.71
2019-04-22T07:59:18.617Z,101655.87
2019-04-22T08:00:27.877Z,101657.71
2019-04-22T08:01:28.102Z,101655.87
2019-04-22T08:02:33.694Z,101655.87
2019-04-22T08:03:47.709Z,101659.02
2019-04-22T08:04:57.978Z,101660.33
2019-04-22T08:05:58.565Z,101656.41
2019-04-22T08:06:59.015Z,101659.41
2019-04-22T08:08:07.235Z,101660.33
2019-04-22T08:09:08.022Z,101667.79
2019-04-22T08:10:17.197Z,101665.55
2019-04-22T08:11:31.071Z,101657.33
2019-04-22T08:12:20.298Z,101660.71
2019-04-22T08:13:25.269Z,101662.17
2019-04-22T08:14:35.846Z,101660.48
2019-04-22T08:16:43.957Z,101659.95
2019-04-22T08:18:52.658Z,101662.55
2019-04-22T08:19:55.788Z,101661.78
2019-04-22T08:20:58.672Z,101659.17
2019-04-22T08:22:01.394Z,101666.09
2019-04-22T08:23:09.391Z,101670.02
2019-04-22T08:24:18.083Z,101664.78
2019-04-22T08:25:17.366Z,101659.56
2019-04-22T08:26:27.377Z,101661.78
2019-04-22T08:27:30.425Z,101661.78
2019-04-22T08:28:41.225Z,101667.02
2019-04-22T08:29:46.064Z,101657.48
2019-04-22T08:30:47.737Z,101657.33
2019-04-22T08:32:53.170Z,101654.71
2019-04-22T08:34:02.082Z,101658.25
2019-04-22T08:35:04.585Z,101655.33
2019-04-22T08:36:20.722Z,101651.17
2019-04-22T08:37:41.609Z,101660.25
2019-04-22T08:38:31.320Z,101660.98
2019-04-22T08:39:34.559Z,101653.33
2019-04-22T08:40:36.421Z,101660.05
2019-04-22T08:41:43.571Z,101654.28
2019-04-22T08:42:53.546Z,101652.41
2019-04-22T08:44:02.340Z,101657.25
2019-04-22T08:45:06.179Z,101649.41
2019-04-22T08:45:57.015Z,101656.90
2019-04-22T08:48:09.664Z,101654.28
2019-04-22T08:49:13.048Z,101646.25
2019-04-22T08:50:14.078Z,101652.98
2019-04-22T08:52:31.861Z,101652.41
2019-04-22T08:53:35.877Z,101651.48
2019-04-22T08:54:36.231Z,101651.86
2019-04-22T08:55:51.534Z,101647.55
2019-04-22T08:57:06.708Z,101651.09
2019-04-22T08:58:09.880Z,101642.33
2019-04-22T08:59:04.715Z,101645.48
2019-04-22T09:00:03.986Z,101646.25
2019-04-22T09:01:11.629Z,101640.63
2019-04-22T09:02:19.901Z,101643.63
2019-04-22T09:03:18.770Z,101642.12
2019-04-22T09:04:16.640Z,101641.94
2019-04-22T09:05:44.877Z,101641.55
2019-04-22T09:06:56.987Z,101638.02
2019-04-22T09:07:38.399Z,101640.25
2019-04-22T09:08:52.139Z,101640.63
2019-04-22T09:09:50.652Z,101640.25
2019-04-22T09:11:00.303Z,101641.20
2019-04-22T09:11:59.896Z,101645.12
2019-04-22T09:14:14.060Z,101644.17
2019-04-22T09:15:18.310Z,101639.90
2019-04-22T09:16:26.686Z,101635.98
2019-04-22T09:17:35.125Z,101643.82
2019-04-22T09:19:35.194Z,101636.90
2019-04-22T09:20:40.440Z,101629.05
2019-04-22T09:21:45.506Z,101632.59
2019-04-22T09:22:53.971Z,101635.98
2019-04-22T09:23:58.311Z,101633.36
2019-04-22T09:24:58.611Z,101638.59
2019-04-22T09:26:05.055Z,101638.20
2019-04-22T09:27:10.210Z,101624.75
2019-04-22T09:28:17.531Z,101628.28
2019-04-22T09:30:34.323Z,101626.97
2019-04-22T09:31:29.391Z,101626.59
2019-04-22T09:32:38.871Z,101631.28
2019-04-22T09:33:43.271Z,101635.74
2019-04-22T09:34:47.569Z,101630.90
2019-04-22T09:37:08.001Z,101633.13
2019-04-22T09:38:18.952Z,101633.90
2019-04-22T09:39:09.470Z,101630.52
2019-04-22T09:40:17.167Z,101631.67
2019-04-22T09:41:18.711Z,101637.97
2019-04-22T09:42:24.071Z,101632.20
2019-04-22T09:43:35.128Z,101633.52
2019-04-22T09:44:36.286Z,101632.74
2019-04-22T09:45:41.856Z,101634.44
2019-04-22T09:46:47.038Z,101633.13
2019-04-22T09:47:55.616Z,101632.74
2019-04-22T09:49:00.309Z,101633.67
2019-04-22T09:50:03.836Z,101629.74
2019-04-22T09:51:07.026Z,101627.90
2019-04-22T09:52:10.489Z,101629.74
2019-04-22T09:53:22.727Z,101631.05
2019-04-22T09:54:29.697Z,101629.74
2019-04-22T09:55:24.368Z,101625.28
2019-04-22T09:56:37.307Z,101625.81
2019-04-22T09:57:38.330Z,101624.90
2019-04-22T09:58:45.887Z,101630.13
2019-04-22T09:59:50.706Z,101629.36
2019-04-22T10:01:05.910Z,101618.36
2019-04-22T10:02:14.659Z,101621.89
2019-04-22T10:04:07.103Z,101628.82
2019-04-22T10:05:11.528Z,101629.74
2019-04-22T10:06:24.774Z,101628.44
2019-04-22T10:07:25.722Z,101629.36
2019-04-22T10:08:31.676Z,101624.52
2019-04-22T10:10:49.074Z,101630.28
2019-04-22T10:13:08.613Z,101626.20
2019-04-22T10:13:56.844Z,101626.74
2019-04-22T10:14:55.900Z,101631.97
2019-04-22T10:16:08.066Z,101623.74
2019-04-22T10:17:08.069Z,101621.89
2019-04-22T10:18:12.768Z,101622.81
2019-04-22T10:19:18.751Z,101619.81
2019-04-22T10:20:27.004Z,101622.05
2019-04-22T10:21:35.264Z,101618.51
2019-04-22T10:23:40.968Z,101624.66
2019-04-22T10:24:38.818Z,101627.28
2019-04-22T10:25:54.094Z,101618.12
2019-04-22T10:26:51.646Z,101621.52
2019-04-22T10:28:06.858Z,101610.66
2019-04-22T10:29:08.670Z,101610.28
2019-04-22T10:30:04.480Z,101609.36
2019-04-22T10:31:21.835Z,101610.81
2019-04-22T10:32:20.553Z,101614.59
2019-04-22T10:33:15.240Z,101611.59
2019-04-22T10:34:16.758Z,101609.36
2019-04-22T10:35:18.875Z,101605.44
2019-04-22T10:36:19.522Z,101606.73
2019-04-22T10:37:25.250Z,101610.66
2019-04-22T10:38:28.389Z,101610.28
2019-04-22T10:39:42.047Z,101613.81
2019-04-22T10:40:40.789Z,101609.89
2019-04-22T10:41:44.455Z,101605.05
2019-04-22T10:42:49.301Z,101603.74
2019-04-22T10:43:52.992Z,101609.89
2019-04-22T10:44:57.267Z,101601.66
2019-04-22T10:46:02.079Z,101605.20
2019-04-22T10:47:06.441Z,101604.81
2019-04-22T10:48:10.486Z,101602.97
2019-04-22T10:49:14.116Z,101604.42
2019-04-22T10:50:18.480Z,101591.20
2019-04-22T10:51:22.347Z,101596.05
2019-04-22T10:52:25.699Z,101598.66
2019-04-22T10:53:29.305Z,101599.97
2019-04-22T10:54:33.625Z,101596.97
2019-04-22T10:55:40.069Z,101594.73
2019-04-22T10:56:43.201Z,101594.73
2019-04-22T10:57:46.373Z,101589.50
2019-04-22T10:58:52.870Z,101587.81
2019-04-22T10:59:56.747Z,101589.12
2019-04-22T11:01:00.323Z,101589.12
2019-04-22T11:02:03.804Z,101590.43
2019-04-22T11:03:08.413Z,101583.89
2019-04-22T11:04:11.594Z,101589.12
2019-04-22T11:05:14.568Z,101580.89
2019-04-22T11:06:19.177Z,101586.89
2019-04-22T11:07:30.848Z,101586.50
2019-04-22T11:08:37.986Z,101585.73
2019-04-22T11:09:46.834Z,101583.12
2019-04-22T11:10:59.082Z,101584.81
2019-04-22T11:11:51.179Z,101576.42
2019-04-22T11:12:49.347Z,101580.89
2019-04-22T11:13:53.731Z,101577.35
2019-04-22T11:14:58.187Z,101576.04
2019-04-22T11:16:03.298Z,101574.34
2019-04-22T11:17:08.861Z,101577.11
2019-04-22T11:18:13.462Z,101574.73
2019-04-22T11:19:17.319Z,101576.58
2019-04-22T11:20:21.805Z,101575.66
2019-04-22T11:21:25.323Z,101571.34
2019-04-22T11:22:34.808Z,101573.97
2019-04-22T11:23:36.479Z,101569.27
2019-04-22T11:24:41.141Z,101569.50
2019-04-22T11:25:45.927Z,101573.19
2019-04-22T11:26:49.418Z,101576.34
2019-04-22T11:27:53.736Z,101576.73
2019-04-22T11:28:57.517Z,101571.88
2019-04-22T11:30:01.867Z,101564.03
2019-04-22T11:31:06.197Z,101574.11
2019-04-22T11:32:10.517Z,101568.73
2019-04-22T11:33:16.262Z,101565.34
2019-04-22T11:34:19.682Z,101572.80
2019-04-22T11:35:23.714Z,101569.80
2019-04-22T11:36:30.604Z,101564.95
2019-04-22T11:37:32.753Z,101568.87
2019-04-22T11:38:38.941Z,101559.73
2019-04-22T11:39:42.559Z,101563.66
2019-04-22T11:40:50.471Z,101563.27
2019-04-22T11:41:51.934Z,101561.57
2019-04-22T11:42:56.508Z,101554.50
2019-04-22T11:44:01.295Z,101554.64
2019-04-22T11:45:05.586Z,101560.65
2019-04-22T11:46:09.375Z,101555.56
2019-04-22T11:47:12.686Z,101565.49
2019-04-22T11:48:17.598Z,101558.56
2019-04-22T11:49:21.863Z,101557.27
2019-04-22T11:50:26.125Z,101563.80
2019-04-22T11:51:30.150Z,101547.95
2019-04-22T11:52:34.971Z,101555.42
2019-04-22T11:53:38.669Z,101555.95
2019-04-22T11:54:43.247Z,101551.11
2019-04-22T11:55:46.840Z,101556.73
2019-04-22T11:56:50.197Z,101559.88
2019-04-22T11:57:54.064Z,101562.49
2019-04-22T11:58:58.508Z,101556.88
2019-04-22T12:00:03.275Z,101563.03
2019-04-22T12:01:06.972Z,101565.11
2019-04-22T12:02:11.040Z,101565.26
2019-04-22T12:03:15.107Z,101552.18
2019-04-22T12:04:20.019Z,101568.26
2019-04-22T12:05:24.010Z,101558.19
2019-04-22T12:06:28.122Z,101562.64
2019-04-22T12:07:34.818Z,101563.03
2019-04-22T12:08:37.386Z,101548.49
2019-04-22T12:09:41.703Z,101547.72
2019-04-22T12:10:51.709Z,101549.80
2019-04-22T12:11:51.712Z,101550.34
2019-04-22T12:12:55.541Z,101553.48
2019-04-22T12:14:00.154Z,101547.72
2019-04-22T12:15:04.184Z,101552.03
2019-04-22T12:16:07.612Z,101548.25
2019-04-22T12:17:11.375Z,101543.41
2019-04-22T12:18:15.416Z,101542.48
2019-04-22T12:19:20.928Z,101539.88
2019-04-22T12:20:25.486Z,101538.18
2019-04-22T12:21:29.110Z,101545.10
2019-04-22T12:22:33.976Z,101542.48
2019-04-22T12:23:39.156Z,101537.26
2019-04-22T12:24:42.844Z,101538.18
2019-04-22T12:25:54.538Z,101538.56
2019-04-22T12:26:52.722Z,101532.95
2019-04-22T12:27:57.027Z,101535.56
2019-04-22T12:29:00.737Z,101531.83
2019-04-22T12:30:04.968Z,101529.80
2019-04-22T12:31:09.409Z,101532.21
2019-04-22T12:32:13.605Z,101528.28
2019-04-22T12:33:17.083Z,101516.52
2019-04-22T12:34:21.520Z,101518.95
2019-04-22T12:35:26.275Z,101521.75
2019-04-22T12:36:30.698Z,101516.87
2019-04-22T12:37:42.954Z,101519.48
2019-04-22T12:38:39.891Z,101507.71
2019-04-22T12:39:43.620Z,101516.13
2019-04-22T12:40:53.142Z,101515.56
2019-04-22T12:41:52.167Z,101512.59
2019-04-22T12:42:57.632Z,101512.94
2019-04-22T12:44:01.156Z,101512.59
2019-04-22T12:45:04.797Z,101506.05
2019-04-22T12:46:10.051Z,101503.44
2019-04-22T12:47:14.841Z,101511.28
2019-04-22T12:48:19.065Z,101508.28
2019-04-22T12:49:22.726Z,101509.59
2019-04-22T12:50:31.543Z,101511.82
2019-04-22T12:51:33.280Z,101505.28
2019-04-22T12:52:45.028Z,101506.59
2019-04-22T12:53:42.232Z,101503.05
2019-04-22T12:54:46.926Z,101504.36
2019-04-22T12:55:50.480Z,101507.51
2019-04-22T12:56:53.683Z,101495.73
2019-04-22T12:58:00.524Z,101500.97
2019-04-22T12:59:03.675Z,101496.66
2019-04-22T13:00:08.350Z,101497.44
2019-04-22T13:01:12.835Z,101497.05
2019-04-22T13:02:16.281Z,101496.66
2019-04-22T13:03:20.342Z,101492.73
2019-04-22T13:04:30.045Z,101495.73
2019-04-22T13:05:33.464Z,101490.51
2019-04-22T13:06:37.579Z,101493.12
2019-04-22T13:07:41.832Z,101494.81
2019-04-22T13:08:45.787Z,101488.28
2019-04-22T13:09:49.534Z,101494.05
2019-04-22T13:11:02.241Z,101491.04
2019-04-22T13:11:59.243Z,101483.58
2019-04-22T13:13:02.888Z,101480.05
2019-04-22T13:14:07.169Z,101486.20
2019-04-22T13:15:11.793Z,101483.97
2019-04-22T13:16:17.826Z,101480.05
2019-04-22T13:17:21.302Z,101480.97
2019-04-22T13:18:36.928Z,101477.42
2019-04-22T13:19:30.247Z,101471.81
2019-04-22T13:20:34.533Z,101478.73
2019-04-22T13:21:38.494Z,101476.66
2019-04-22T13:22:43.026Z,101473.50
2019-04-22T13:23:50.705Z,101470.11
2019-04-22T13:24:54.445Z,101469.73
2019-04-22T13:25:59.014Z,101466.97
2019-04-22T13:27:03.316Z,101469.19
2019-04-22T13:28:07.218Z,101474.42
2019-04-22T13:29:10.932Z,101471.81
2019-04-22T13:30:16.435Z,101467.50
2019-04-22T13:31:20.866Z,101466.25
2019-04-22T13:32:25.112Z,101462.03
2019-04-22T13:33:28.741Z,101466.78
2019-04-22T13:34:39.813Z,101461.10
2019-04-22T13:35:37.456Z,101464.16
2019-04-22T13:36:43.577Z,101458.30
2019-04-22T13:37:46.787Z,101453.74
2019-04-22T13:38:51.292Z,101452.97
2019-04-22T13:39:54.803Z,101454.81
2019-04-22T13:41:12.524Z,101461.14
2019-04-22T13:42:06.005Z,101461.53
2019-04-22T13:43:09.073Z,101446.36
2019-04-22T13:44:12.873Z,101458.28
2019-04-22T13:45:17.907Z,101451.74
2019-04-22T13:46:21.957Z,101451.89
2019-04-22T13:47:42.354Z,101450.73
2019-04-22T13:48:52.797Z,101455.57
2019-04-22T13:51:15.113Z,101454.12
2019-04-22T13:52:22.632Z,101453.34
2019-04-22T13:54:01.901Z,101452.42
2019-04-22T13:55:32.720Z,101447.33
2019-04-22T13:56:24.812Z,101448.25
2019-04-22T13:57:41.466Z,101450.09
2019-04-22T13:58:51.769Z,101449.56
2019-04-22T13:59:44.612Z,101449.56
2019-04-22T14:00:44.682Z,101448.11
2019-04-22T14:02:06.335Z,101446.02
2019-04-22T14:03:41.158Z,101450.73
2019-04-22T14:04:46.503Z,101443.26
2019-04-22T14:05:51.171Z,101442.77
2019-04-22T14:06:54.996Z,101440.16
2019-04-22T14:08:00.795Z,101442.39
2019-04-22T14:09:05.199Z,101442.24